Time;durP1;ratioP1;P1;durP2;ratioP2;P2;SDS_P1;SDS_P2;PMS_P1;PMS_P2;Temp;Humidity;BMP_temperature;BMP_pressure;BME280_temperature;BME280_humidity;BME280_pressure;Samples;Min_cycle;Max_cycle;Signal;HPM_P1;HPM_P2
2022/09/24 00:01:12;;;;;;;11.65;9.50;;;;;;;;;;5072099;28;20230;-22
2022/09/24 00:03:44;;;;;;;12.32;8.98;;;;;;;;;;5072224;28;20222;-22
2022/09/24 00:06:13;;;;;;;11.27;8.88;;;;;;;;;;5072151;28;20225;-22
2022/09/24 00:08:41;;;;;;;11.60;9.63;;;;;;;;;;5071119;28;21176;-22
2022/09/24 00:11:11;;;;;;;13.20;9.30;;;;;;;;;;5071437;28;20264;-22
2022/09/24 00:13:38;;;;;;;11.77;9.43;;;;;;;;;;5071859;28;20291;-23
2022/09/24 00:16:06;;;;;;;11.25;9.20;;;;;;;;;;5071898;28;20930;-21
2022/09/24 00:18:34;;;;;;;12.75;9.07;;;;;;;;;;5071625;28;20700;-23
2022/09/24 00:21:01;;;;;;;11.15;9.10;;;;;;;;;;5071101;28;20229;-22
2022/09/24 00:23:29;;;;;;;12.00;9.27;;;;;;;;;;5070167;28;20229;-22
2022/09/24 00:28:42;;;;;;;11.55;9.75;;;;;;;;;;5071776;28;20239;-22
2022/09/24 00:31:10;;;;;;;11.65;9.55;;;;;;;;;;5071303;28;20283;-21
2022/09/24 00:33:37;;;;;;;12.98;9.60;;;;;;;;;;5050847;28;20291;-22
2022/09/24 00:36:05;;;;;;;11.07;9.38;;;;;;;;;;5051262;28;20234;-22
2022/09/24 00:38:32;;;;;;;12.65;9.55;;;;;;;;;;5051347;28;20315;-23
2022/09/24 00:41:01;;;;;;;13.00;9.95;;;;;;;;;;5051532;28;20218;-22
2022/09/24 00:43:29;;;;;;;11.90;10.35;;;;;;;;;;5062286;28;20331;-22
2022/09/24 00:45:57;;;;;;;12.48;10.18;;;;;;;;;;5071771;28;20764;-21
2022/09/24 00:48:24;;;;;;;10.05;8.90;;;;;;;;;;5071734;28;20742;-22
2022/09/24 00:50:52;;;;;;;11.60;9.35;;;;;;;;;;5071938;28;20260;-23
2022/09/24 00:53:20;;;;;;;11.82;9.65;;;;;;;;;;5078187;28;20224;-22
2022/09/24 00:55:48;;;;;;;13.20;10.77;;;;;;;;;;5091560;28;20233;-22
2022/09/24 00:58:16;;;;;;;12.43;9.88;;;;;;;;;;5090670;28;20237;-23
2022/09/24 01:00:44;;;;;;;10.70;9.35;;;;;;;;;;5086037;28;20222;-23
2022/09/24 01:03:12;;;;;;;12.77;9.10;;;;;;;;;;5071016;28;20221;-22
2022/09/24 01:05:39;;;;;;;10.48;9.38;;;;;;;;;;5070444;28;20229;-23
2022/09/24 01:08:07;;;;;;;11.07;9.52;;;;;;;;;;5070348;28;20272;-22
2022/09/24 01:10:48;;;;;;;10.52;8.93;;;;;;;;;;5071534;28;20951;-21
2022/09/24 01:13:20;;;;;;;11.35;9.05;;;;;;;;;;5074323;28;20628;-23
2022/09/24 01:15:48;;;;;;;12.52;9.38;;;;;;;;;;5078754;28;20232;-23
2022/09/24 01:18:16;;;;;;;13.20;10.30;;;;;;;;;;5094505;28;20240;-24
2022/09/24 01:20:47;;;;;;;11.63;9.18;;;;;;;;;;5075794;28;20284;-24
2022/09/24 01:23:22;;;;;;;10.43;8.57;;;;;;;;;;5071819;28;20492;-23
2022/09/24 01:25:57;;;;;;;13.00;8.85;;;;;;;;;;5073622;28;20233;-23
2022/09/24 01:28:30;;;;;;;9.77;8.43;;;;;;;;;;5070492;28;20283;-23
2022/09/24 01:31:00;;;;;;;11.20;8.57;;;;;;;;;;5068520;28;20291;-23
2022/09/24 01:33:28;;;;;;;10.45;8.73;;;;;;;;;;5059151;28;20233;-22
2022/09/24 01:35:56;;;;;;;10.05;8.43;;;;;;;;;;5074665;28;20233;-24
2022/09/24 01:38:24;;;;;;;10.27;8.10;;;;;;;;;;5074179;28;20283;-22
2022/09/24 01:40:52;;;;;;;9.38;7.82;;;;;;;;;;5074202;28;20276;-23
2022/09/24 01:43:20;;;;;;;10.90;8.00;;;;;;;;;;5073684;28;20240;-23
2022/09/24 01:45:47;;;;;;;8.82;7.45;;;;;;;;;;5074148;28;20337;-23
2022/09/24 01:48:20;;;;;;;9.18;7.72;;;;;;;;;;5073507;28;20684;-22
2022/09/24 01:50:48;;;;;;;10.30;7.40;;;;;;;;;;5074117;28;20281;-22
2022/09/24 01:53:16;;;;;;;9.40;8.40;;;;;;;;;;5073418;28;20311;-23
2022/09/24 01:55:46;;;;;;;8.85;7.75;;;;;;;;;;5091324;28;20232;-21
2022/09/24 01:58:15;;;;;;;10.18;7.70;;;;;;;;;;5094615;28;20663;-21
2022/09/24 02:00:44;;;;;;;9.45;7.93;;;;;;;;;;5089102;28;20307;-24
2022/09/24 02:03:12;;;;;;;10.15;8.88;;;;;;;;;;5074003;28;20734;-23
2022/09/24 02:05:41;;;;;;;9.00;7.75;;;;;;;;;;5072870;28;20283;-23
2022/09/24 02:08:09;;;;;;;9.43;7.70;;;;;;;;;;5073937;28;20226;-23
2022/09/24 02:10:37;;;;;;;9.10;8.05;;;;;;;;;;5073775;28;20788;-24
2022/09/24 02:13:06;;;;;;;9.10;8.13;;;;;;;;;;5073089;28;20233;-24
2022/09/24 02:15:36;;;;;;;9.68;6.95;;;;;;;;;;5072902;28;20225;-21
2022/09/24 02:18:04;;;;;;;9.70;7.30;;;;;;;;;;5073886;28;20287;-22
2022/09/24 02:20:31;;;;;;;10.05;7.50;;;;;;;;;;5053581;28;20242;-23
2022/09/24 02:23:00;;;;;;;8.65;7.32;;;;;;;;;;5129818;22;20239;-19
2022/09/24 02:25:29;;;;;;;8.43;7.18;;;;;;;;;;5131338;27;20232;-20
2022/09/24 02:27:56;;;;;;;8.05;7.05;;;;;;;;;;5128032;27;20232;-19
2022/09/24 02:30:23;;;;;;;8.73;6.75;;;;;;;;;;5133944;27;21079;-20
2022/09/24 02:32:51;;;;;;;8.63;7.45;;;;;;;;;;5133922;27;20794;-20
2022/09/24 02:35:17;;;;;;;11.55;8.52;;;;;;;;;;5133678;27;20693;-20
2022/09/24 02:37:44;;;;;;;10.10;7.15;;;;;;;;;;5132252;27;21107;-20
2022/09/24 02:40:13;;;;;;;9.13;7.43;;;;;;;;;;5133809;27;20231;-20
2022/09/24 02:42:42;;;;;;;8.23;7.30;;;;;;;;;;5133119;27;20228;-20
2022/09/24 02:45:09;;;;;;;8.90;7.82;;;;;;;;;;5132035;27;20231;-20
2022/09/24 02:47:37;;;;;;;7.72;6.93;;;;;;;;;;5112827;28;20690;-20
2022/09/24 02:50:05;;;;;;;7.80;6.60;;;;;;;;;;5128792;27;21107;-20
2022/09/24 02:52:33;;;;;;;7.32;6.50;;;;;;;;;;5133540;27;20219;-19
2022/09/24 02:55:00;;;;;;;8.68;7.00;;;;;;;;;;5133436;27;20220;-20
2022/09/24 02:57:29;;;;;;;8.73;7.40;;;;;;;;;;5133509;27;20238;-21
2022/09/24 02:59:56;;;;;;;10.48;9.00;;;;;;;;;;5132432;27;20286;-20
2022/09/24 03:02:24;;;;;;;11.95;9.63;;;;;;;;;;5133079;27;20227;-19
2022/09/24 03:04:51;;;;;;;9.98;8.90;;;;;;;;;;5132773;27;20227;-20
2022/09/24 03:07:20;;;;;;;10.50;8.82;;;;;;;;;;5133530;27;20224;-20
2022/09/24 03:09:48;;;;;;;11.20;8.82;;;;;;;;;;5133191;27;20227;-21
2022/09/24 03:12:15;;;;;;;10.27;8.98;;;;;;;;;;5132581;27;20227;-19
2022/09/24 03:14:44;;;;;;;11.23;8.70;;;;;;;;;;5133293;27;20261;-20
2022/09/24 03:17:11;;;;;;;10.55;8.43;;;;;;;;;;5114983;27;20232;-20
2022/09/24 03:19:39;;;;;;;11.30;9.23;;;;;;;;;;5112178;28;20232;-20
2022/09/24 03:22:06;;;;;;;10.35;8.95;;;;;;;;;;5111472;28;20244;-20
2022/09/24 03:24:33;;;;;;;9.88;8.88;;;;;;;;;;5112640;28;20281;-20
2022/09/24 03:27:01;;;;;;;11.15;8.65;;;;;;;;;;5097870;28;20229;-20
2022/09/24 03:32:15;;;;;;;9.20;8.15;;;;;;;;;;5111635;28;20660;-20
2022/09/24 03:34:42;;;;;;;10.52;8.80;;;;;;;;;;5111591;28;20266;-20
2022/09/24 03:37:09;;;;;;;12.43;9.05;;;;;;;;;;5112322;28;20227;-21
2022/09/24 03:39:37;;;;;;;11.45;9.15;;;;;;;;;;5111960;28;20240;-19
2022/09/24 03:42:04;;;;;;;11.60;8.45;;;;;;;;;;5112269;28;20297;-20
2022/09/24 03:44:31;;;;;;;10.25;8.57;;;;;;;;;;5111312;28;20289;-20
2022/09/24 03:46:59;;;;;;;11.30;8.30;;;;;;;;;;5112051;28;20236;-20
2022/09/24 03:49:27;;;;;;;11.88;8.60;;;;;;;;;;5111230;28;20725;-20
2022/09/24 03:51:55;;;;;;;10.15;8.40;;;;;;;;;;5111140;28;20575;-20
2022/09/24 03:54:22;;;;;;;10.13;8.23;;;;;;;;;;5111270;28;20208;-20
2022/09/24 03:56:49;;;;;;;11.48;7.85;;;;;;;;;;5111754;28;20236;-20
2022/09/24 03:59:17;;;;;;;9.45;7.97;;;;;;;;;;5112144;28;21025;-19
2022/09/24 04:01:44;;;;;;;9.82;7.93;;;;;;;;;;5111655;28;20232;-19
2022/09/24 04:04:15;;;;;;;8.88;7.35;;;;;;;;;;5111804;28;20313;-20
2022/09/24 04:06:43;;;;;;;10.25;8.50;;;;;;;;;;5111093;28;20315;-19
2022/09/24 04:09:11;;;;;;;10.05;7.35;;;;;;;;;;5112231;28;20329;-20
2022/09/24 04:11:38;;;;;;;11.48;7.55;;;;;;;;;;5111153;28;20743;-20
2022/09/24 04:14:05;;;;;;;9.25;7.70;;;;;;;;;;5111591;28;20694;-20
2022/09/24 04:16:33;;;;;;;8.02;7.13;;;;;;;;;;5110299;28;20236;-20
2022/09/24 04:19:00;;;;;;;7.95;7.15;;;;;;;;;;5111382;28;20991;-20
2022/09/24 04:21:29;;;;;;;8.38;7.35;;;;;;;;;;5111072;28;20297;-20
2022/09/24 04:23:57;;;;;;;9.57;7.22;;;;;;;;;;5111621;28;20239;-19
2022/09/24 04:26:25;;;;;;;8.40;6.78;;;;;;;;;;5111406;28;20270;-20
2022/09/24 04:28:52;;;;;;;7.95;6.88;;;;;;;;;;5110742;28;20228;-20
2022/09/24 04:31:20;;;;;;;8.43;7.10;;;;;;;;;;5111982;28;20289;-20
2022/09/24 04:33:47;;;;;;;8.38;7.07;;;;;;;;;;5110841;28;20224;-20
2022/09/24 04:36:15;;;;;;;8.60;7.18;;;;;;;;;;5111753;28;20761;-20
2022/09/24 04:38:42;;;;;;;7.75;6.95;;;;;;;;;;5110804;28;20228;-20
2022/09/24 04:41:11;;;;;;;8.55;6.75;;;;;;;;;;5110713;28;20701;-20
2022/09/24 04:43:39;;;;;;;9.73;6.40;;;;;;;;;;5111330;28;20818;-20
2022/09/24 04:46:07;;;;;;;7.50;6.40;;;;;;;;;;5113135;27;20227;-20
2022/09/24 04:48:37;;;;;;;10.80;7.25;;;;;;;;;;5115018;28;20274;-20
2022/09/24 04:51:04;;;;;;;8.35;6.85;;;;;;;;;;5114092;28;20228;-19
2022/09/24 04:53:32;;;;;;;8.18;6.95;;;;;;;;;;5115018;28;20228;-20
2022/09/24 04:56:00;;;;;;;7.18;6.35;;;;;;;;;;5114131;28;20289;-20
2022/09/24 04:58:28;;;;;;;8.65;6.88;;;;;;;;;;5114561;28;20228;-19
2022/09/24 05:00:56;;;;;;;8.40;7.18;;;;;;;;;;5113880;28;20788;-20
2022/09/24 05:03:23;;;;;;;7.60;6.68;;;;;;;;;;5114637;28;20993;-20
2022/09/24 05:05:50;;;;;;;7.07;6.25;;;;;;;;;;5114484;28;21042;-19
2022/09/24 05:08:18;;;;;;;7.50;6.45;;;;;;;;;;5114497;28;20323;-20
2022/09/24 05:10:45;;;;;;;8.02;6.72;;;;;;;;;;5114296;28;20273;-20
2022/09/24 05:13:13;;;;;;;7.65;6.25;;;;;;;;;;5114033;28;20281;-20
2022/09/24 05:15:41;;;;;;;7.72;6.68;;;;;;;;;;5114405;28;20266;-20
2022/09/24 05:18:09;;;;;;;6.78;5.80;;;;;;;;;;5113889;28;20228;-20
2022/09/24 05:20:37;;;;;;;7.60;6.70;;;;;;;;;;5114469;28;20236;-19
2022/09/24 05:23:04;;;;;;;9.90;7.30;;;;;;;;;;5113419;28;20236;-20
2022/09/24 05:25:32;;;;;;;9.07;6.30;;;;;;;;;;5114459;28;20232;-20
2022/09/24 05:27:58;;;;;;;7.60;6.45;;;;;;;;;;5114338;28;20274;-19
2022/09/24 05:30:25;;;;;;;7.30;6.30;;;;;;;;;;5113699;28;20266;-20
2022/09/24 05:32:54;;;;;;;6.90;6.20;;;;;;;;;;5114119;28;20224;-20
2022/09/24 05:35:22;;;;;;;7.50;6.43;;;;;;;;;;5113863;27;20224;-19
2022/09/24 05:37:52;;;;;;;8.18;6.82;;;;;;;;;;5114268;28;20216;-21
2022/09/24 05:43:04;;;;;;;9.25;7.05;;;;;;;;;;5113736;28;20235;-20
2022/09/24 05:45:32;;;;;;;9.13;7.80;;;;;;;;;;5113456;28;21004;-20
2022/09/24 05:48:00;;;;;;;8.40;6.95;;;;;;;;;;5113815;28;20232;-20
2022/09/24 05:50:28;;;;;;;8.23;6.97;;;;;;;;;;5113885;28;20228;-19
2022/09/24 05:52:55;;;;;;;7.93;6.85;;;;;;;;;;5113713;28;21031;-19
2022/09/24 05:55:23;;;;;;;8.05;6.88;;;;;;;;;;5112578;28;20286;-19
2022/09/24 05:57:56;;;;;;;8.65;7.03;;;;;;;;;;5113658;28;20228;-19
2022/09/24 06:00:23;;;;;;;8.02;6.88;;;;;;;;;;5113692;28;20224;-19
2022/09/24 06:02:51;;;;;;;7.50;6.60;;;;;;;;;;5113671;28;21098;-20
2022/09/24 06:05:19;;;;;;;9.23;7.25;;;;;;;;;;5093140;28;20327;-20
2022/09/24 06:07:47;;;;;;;7.75;6.80;;;;;;;;;;5106453;28;20220;-20
2022/09/24 06:10:15;;;;;;;8.40;7.10;;;;;;;;;;5113703;28;20301;-19
2022/09/24 06:12:43;;;;;;;8.65;7.10;;;;;;;;;;5113498;28;20740;-21
2022/09/24 06:15:11;;;;;;;7.97;6.70;;;;;;;;;;5113456;28;20293;-20
2022/09/24 06:17:38;;;;;;;10.48;7.80;;;;;;;;;;5112494;28;20236;-19
2022/09/24 06:20:06;;;;;;;8.50;7.40;;;;;;;;;;5112968;28;20232;-19
2022/09/24 06:22:34;;;;;;;8.80;6.80;;;;;;;;;;5112909;28;20713;-19
2022/09/24 06:25:02;;;;;;;8.25;7.03;;;;;;;;;;5113275;27;20228;-19
2022/09/24 06:27:29;;;;;;;7.90;7.10;;;;;;;;;;5098413;28;20232;-19
2022/09/24 06:29:57;;;;;;;8.82;6.78;;;;;;;;;;5108036;28;20235;-19
2022/09/24 06:32:24;;;;;;;8.18;6.30;;;;;;;;;;5112991;28;20239;-19
2022/09/24 06:34:51;;;;;;;8.05;6.63;;;;;;;;;;5113050;28;20220;-20
2022/09/24 06:37:25;;;;;;;8.45;6.90;;;;;;;;;;5113266;28;20235;-20
2022/09/24 06:39:54;;;;;;;10.48;7.75;;;;;;;;;;5112350;28;20234;-20
2022/09/24 06:42:21;;;;;;;11.07;7.55;;;;;;;;;;5113282;28;20267;-19
2022/09/24 06:44:49;;;;;;;8.45;7.25;;;;;;;;;;5112466;28;20224;-20
2022/09/24 06:47:16;;;;;;;7.93;7.00;;;;;;;;;;5113112;28;20231;-20
2022/09/24 06:49:44;;;;;;;9.32;7.80;;;;;;;;;;5112219;28;20236;-20
2022/09/24 06:52:12;;;;;;;8.50;7.60;;;;;;;;;;5112225;28;20235;-19
2022/09/24 06:54:39;;;;;;;9.60;8.05;;;;;;;;;;5113349;28;20220;-20
2022/09/24 06:57:08;;;;;;;9.90;6.63;;;;;;;;;;5114149;28;20258;-20
2022/09/24 06:59:35;;;;;;;10.07;6.80;;;;;;;;;;5113490;28;20228;-20
2022/09/24 07:02:03;;;;;;;9.52;6.82;;;;;;;;;;5112356;28;20232;-19
2022/09/24 07:04:30;;;;;;;8.20;6.63;;;;;;;;;;5113266;28;21028;-20
2022/09/24 07:09:43;;;;;;;15.63;7.50;;;;;;;;;;5110648;28;20292;-19
2022/09/24 07:12:12;;;;;;;9.18;6.45;;;;;;;;;;5104374;28;20793;-19
2022/09/24 07:14:39;;;;;;;11.60;6.60;;;;;;;;;;5103391;28;20224;-19
2022/09/24 07:17:07;;;;;;;10.90;6.63;;;;;;;;;;5110947;28;20224;-20
2022/09/24 07:19:34;;;;;;;11.75;7.13;;;;;;;;;;5112449;28;20231;-20
2022/09/24 07:22:02;;;;;;;11.82;6.90;;;;;;;;;;5111677;28;20251;-19
2022/09/24 07:24:29;;;;;;;8.45;6.50;;;;;;;;;;5112435;27;20228;-19
2022/09/24 07:26:57;;;;;;;11.98;6.93;;;;;;;;;;5112351;28;20224;-19
2022/09/24 07:29:26;;;;;;;12.27;7.40;;;;;;;;;;5112583;28;20278;-19
2022/09/24 07:31:53;;;;;;;14.07;7.28;;;;;;;;;;5106477;28;20236;-19
2022/09/24 07:34:21;;;;;;;8.80;7.20;;;;;;;;;;5105092;28;20244;-19
2022/09/24 07:36:48;;;;;;;9.82;6.80;;;;;;;;;;5109276;28;20694;-19
2022/09/24 07:39:16;;;;;;;9.00;7.10;;;;;;;;;;5112277;28;20285;-19
2022/09/24 07:41:43;;;;;;;11.38;6.88;;;;;;;;;;5112488;28;20243;-20
2022/09/24 07:44:11;;;;;;;10.73;7.10;;;;;;;;;;5112545;28;20243;-20
2022/09/24 07:46:40;;;;;;;10.27;6.95;;;;;;;;;;5112348;27;20698;-19
2022/09/24 07:49:07;;;;;;;10.68;8.18;;;;;;;;;;5112349;28;20232;-19
2022/09/24 07:51:35;;;;;;;12.98;8.80;;;;;;;;;;5112275;28;20228;-19
2022/09/24 07:54:03;;;;;;;13.00;8.02;;;;;;;;;;5112234;28;20964;-19
2022/09/24 07:56:31;;;;;;;18.98;8.15;;;;;;;;;;5110333;28;20238;-19
2022/09/24 07:58:58;;;;;;;9.68;6.43;;;;;;;;;;5111003;28;20235;-19
2022/09/24 08:01:26;;;;;;;11.00;7.43;;;;;;;;;;5101425;28;20695;-19
2022/09/24 08:03:55;;;;;;;11.18;6.90;;;;;;;;;;5110072;27;20635;-19
2022/09/24 08:06:22;;;;;;;18.75;7.53;;;;;;;;;;5110406;28;20231;-19
2022/09/24 08:08:51;;;;;;;15.10;7.15;;;;;;;;;;5110816;28;20236;-19
2022/09/24 08:11:20;;;;;;;12.48;6.97;;;;;;;;;;5111248;28;20228;-19
2022/09/24 08:13:47;;;;;;;16.73;7.80;;;;;;;;;;5110334;28;20228;-19
2022/09/24 08:16:16;;;;;;;8.35;7.10;;;;;;;;;;5110523;27;20239;-18
2022/09/24 08:18:43;;;;;;;15.80;7.10;;;;;;;;;;5109466;28;20223;-18
2022/09/24 08:21:14;;;;;;;11.27;7.03;;;;;;;;;;5106365;28;20244;-19
2022/09/24 08:23:41;;;;;;;16.25;8.05;;;;;;;;;;5090357;28;20244;-18
2022/09/24 08:26:09;;;;;;;17.05;7.25;;;;;;;;;;5091276;28;20236;-18
2022/09/24 08:28:39;;;;;;;11.77;6.97;;;;;;;;;;5090117;28;20239;-18
2022/09/24 08:31:07;;;;;;;16.42;6.97;;;;;;;;;;5106447;28;20228;-19
2022/09/24 08:33:35;;;;;;;14.32;7.60;;;;;;;;;;5110601;27;20285;-18
2022/09/24 08:36:03;;;;;;;16.38;7.90;;;;;;;;;;5109943;28;20237;-19
2022/09/24 08:38:32;;;;;;;11.20;7.13;;;;;;;;;;5111152;28;20393;-19
2022/09/24 08:41:02;;;;;;;11.25;7.50;;;;;;;;;;5110718;28;20238;-19
2022/09/24 08:43:34;;;;;;;13.07;7.40;;;;;;;;;;5092487;28;20240;-18
2022/09/24 08:48:48;;;;;;;16.17;7.88;;;;;;;;;;5109350;28;20281;-18
2022/09/24 08:51:17;;;;;;;17.75;7.25;;;;;;;;;;5110329;28;20230;-18
2022/09/24 08:53:47;;;;;;;11.25;6.88;;;;;;;;;;5112726;28;20238;-19
2022/09/24 08:56:15;;;;;;;18.50;7.13;;;;;;;;;;5111621;28;20239;-18
2022/09/24 08:58:44;;;;;;;16.77;7.18;;;;;;;;;;5110595;28;20228;-18
2022/09/24 09:01:15;;;;;;;20.20;6.68;;;;;;;;;;5110981;28;20224;-19
2022/09/24 09:03:44;;;;;;;12.50;6.55;;;;;;;;;;5110645;28;20241;-21
2022/09/24 09:06:12;;;;;;;15.50;6.90;;;;;;;;;;5112937;28;20232;-19
2022/09/24 09:08:42;;;;;;;11.57;6.82;;;;;;;;;;5112180;28;20236;-19
2022/09/24 09:11:31;;;;;;;11.32;6.78;;;;;;;;;;5111802;28;20236;-20
2022/09/24 09:14:00;;;;;;;9.65;6.50;;;;;;;;;;5109667;28;20614;-19
2022/09/24 09:16:27;;;;;;;12.73;6.78;;;;;;;;;;5110628;28;20695;-19
2022/09/24 09:18:56;;;;;;;12.18;6.22;;;;;;;;;;5111021;28;20298;-19
2022/09/24 09:21:25;;;;;;;18.17;6.47;;;;;;;;;;5110474;28;20244;-19
2022/09/24 09:23:53;;;;;;;13.38;5.68;;;;;;;;;;5110991;28;20251;-19
2022/09/24 09:26:21;;;;;;;8.90;5.70;;;;;;;;;;5109709;28;20285;-19
2022/09/24 09:28:50;;;;;;;19.65;6.53;;;;;;;;;;5089094;28;20239;-19
2022/09/24 09:31:21;;;;;;;14.20;6.80;;;;;;;;;;5108079;28;20235;-19
2022/09/24 09:33:55;;;;;;;20.55;7.15;;;;;;;;;;5113521;27;20703;-19
2022/09/24 09:36:29;;;;;;;18.13;7.10;;;;;;;;;;5113436;28;20228;-19
2022/09/24 09:38:58;;;;;;;19.42;6.70;;;;;;;;;;5112639;28;20232;-19
2022/09/24 09:41:28;;;;;;;17.52;7.03;;;;;;;;;;5113716;28;20231;-19
2022/09/24 09:43:58;;;;;;;12.52;6.15;;;;;;;;;;5114026;28;20244;-19
2022/09/24 09:46:26;;;;;;;15.32;6.43;;;;;;;;;;5113149;28;20231;-19
2022/09/24 09:48:55;;;;;;;18.38;6.78;;;;;;;;;;5113381;28;20921;-19
2022/09/24 09:51:24;;;;;;;20.75;6.97;;;;;;;;;;5094375;28;20709;-19
2022/09/24 09:53:55;;;;;;;17.48;6.95;;;;;;;;;;5093127;28;20679;-19
2022/09/24 09:56:23;;;;;;;20.80;7.78;;;;;;;;;;5092168;28;20610;-18
2022/09/24 09:58:54;;;;;;;22.60;7.45;;;;;;;;;;5107247;28;20523;-20
2022/09/24 10:01:30;;;;;;;15.55;6.68;;;;;;;;;;5113390;28;20663;-18
2022/09/24 10:04:02;;;;;;;18.80;6.90;;;;;;;;;;5112668;28;20239;-18
2022/09/24 10:06:30;;;;;;;19.63;6.90;;;;;;;;;;5113159;27;20232;-18
2022/09/24 10:09:06;;;;;;;14.57;7.07;;;;;;;;;;5111806;28;20235;-18
2022/09/24 10:11:33;;;;;;;11.98;6.68;;;;;;;;;;5111981;28;20232;-18
2022/09/24 10:14:01;;;;;;;11.55;6.35;;;;;;;;;;5112345;28;20228;-18
2022/09/24 10:16:30;;;;;;;19.60;6.35;;;;;;;;;;5112367;28;20232;-20
2022/09/24 10:18:58;;;;;;;14.05;7.22;;;;;;;;;;5111518;28;20725;-18
2022/09/24 10:21:27;;;;;;;22.73;8.00;;;;;;;;;;5112516;28;20292;-19
2022/09/24 10:23:57;;;;;;;14.55;6.65;;;;;;;;;;5112261;28;21061;-18
2022/09/24 10:26:33;;;;;;;12.82;6.40;;;;;;;;;;5111890;28;20239;-18
2022/09/24 10:31:47;;;;;;;20.55;6.55;;;;;;;;;;5106242;28;20239;-18
2022/09/24 10:34:18;;;;;;;10.23;6.65;;;;;;;;;;5111948;28;20228;-18
2022/09/24 10:36:49;;;;;;;15.18;6.07;;;;;;;;;;5112811;28;20236;-19
2022/09/24 10:39:17;;;;;;;17.95;6.38;;;;;;;;;;5112043;28;20271;-20
2022/09/24 10:41:46;;;;;;;14.50;7.25;;;;;;;;;;5111469;27;20228;-18
2022/09/24 10:44:13;;;;;;;18.27;7.47;;;;;;;;;;5115064;28;21233;-19
2022/09/24 10:46:56;;;;;;;12.85;7.05;;;;;;;;;;5120580;28;20232;-19
2022/09/24 10:49:28;;;;;;;11.23;6.38;;;;;;;;;;5105939;28;20259;-18
2022/09/24 10:51:57;;;;;;;13.13;7.13;;;;;;;;;;5118797;28;20240;-19
2022/09/24 10:54:32;;;;;;;17.25;7.38;;;;;;;;;;5108122;28;20231;-19
2022/09/24 10:57:00;;;;;;;12.85;8.15;;;;;;;;;;5101408;28;20232;-19
2022/09/24 10:59:31;;;;;;;13.27;8.02;;;;;;;;;;5103371;28;20224;-19
2022/09/24 11:02:03;;;;;;;18.17;9.73;;;;;;;;;;5118732;28;21112;-21
2022/09/24 11:04:35;;;;;;;17.02;10.30;;;;;;;;;;5124534;28;20325;-19
2022/09/24 11:07:32;;;;;;;29.27;13.48;;;;;;;;;;5123982;28;20340;-20
2022/09/24 11:10:01;;;;;;;26.55;15.88;;;;;;;;;;5061228;28;20236;-19
2022/09/24 11:12:30;;;;;;;24.27;15.80;;;;;;;;;;5103978;28;20235;-19
2022/09/24 11:15:03;;;;;;;29.40;15.95;;;;;;;;;;5120116;28;20767;-19
2022/09/24 11:17:33;;;;;;;35.83;16.40;;;;;;;;;;5115796;28;20224;-20
2022/09/24 11:20:12;;;;;;;25.20;15.35;;;;;;;;;;5122010;28;20293;-20
2022/09/24 11:22:43;;;;;;;26.40;15.40;;;;;;;;;;5121661;28;20300;-20
2022/09/24 11:25:17;;;;;;;23.60;14.93;;;;;;;;;;5120625;28;20228;-20
2022/09/24 11:27:50;;;;;;;23.42;14.80;;;;;;;;;;5119256;28;20280;-20
2022/09/24 11:30:18;;;;;;;40.72;15.48;;;;;;;;;;5124974;28;20219;-20
2022/09/24 11:32:52;;;;;;;31.27;14.52;;;;;;;;;;5131717;28;20239;-19
2022/09/24 11:35:32;;;;;;;29.58;15.57;;;;;;;;;;5132176;27;20220;-19
2022/09/24 11:38:00;;;;;;;27.42;14.50;;;;;;;;;;5128079;28;20208;-19
2022/09/24 11:40:42;;;;;;;28.25;15.02;;;;;;;;;;5130017;28;20228;-20
2022/09/24 11:43:18;;;;;;;25.45;14.73;;;;;;;;;;5125569;28;20245;-19
2022/09/24 11:45:48;;;;;;;19.30;13.60;;;;;;;;;;5131758;28;20363;-19
2022/09/24 11:48:23;;;;;;;21.52;14.40;;;;;;;;;;5132386;28;20280;-19
2022/09/24 11:50:55;;;;;;;20.83;14.00;;;;;;;;;;5131495;28;20229;-19
2022/09/24 11:53:25;;;;;;;23.73;13.93;;;;;;;;;;5130446;28;20207;-19
2022/09/24 11:55:54;;;;;;;15.35;12.30;;;;;;;;;;5120089;28;20624;-19
2022/09/24 11:58:24;;;;;;;16.83;12.98;;;;;;;;;;5113866;28;21127;-19
2022/09/24 12:00:52;;;;;;;16.70;12.43;;;;;;;;;;5120203;28;20220;-19
2022/09/24 12:03:20;;;;;;;14.20;12.20;;;;;;;;;;5096721;28;20229;-19
2022/09/24 12:05:56;;;;;;;17.30;11.90;;;;;;;;;;5099416;28;20216;-18
2022/09/24 12:08:26;;;;;;;16.83;11.27;;;;;;;;;;5110634;28;20353;-19
2022/09/24 12:10:54;;;;;;;14.70;11.43;;;;;;;;;;5122682;28;20228;-18
2022/09/24 12:13:22;;;;;;;14.23;10.48;;;;;;;;;;5120235;28;21052;-18
2022/09/24 12:15:51;;;;;;;14.80;9.75;;;;;;;;;;5130610;28;20315;-19
2022/09/24 12:18:21;;;;;;;13.52;10.27;;;;;;;;;;5128178;28;20212;-18
2022/09/24 12:20:49;;;;;;;12.55;9.30;;;;;;;;;;5131300;28;20276;-23
2022/09/24 12:23:19;;;;;;;13.25;9.82;;;;;;;;;;5128515;28;20231;-18
2022/09/24 12:25:47;;;;;;;14.32;9.82;;;;;;;;;;5111296;28;20236;-18
2022/09/24 12:32:52;;;;;;;17.48;10.43;;;;;;;;;;5112258;28;20343;-18
2022/09/24 12:33:49;;;;;;;13.05;10.25;;;;;;;;;;5145221;27;20255;-18
2022/09/24 12:36:17;;;;;;;11.73;10.05;;;;;;;;;;5143580;27;20220;-18
2022/09/24 12:38:47;;;;;;;13.48;9.60;;;;;;;;;;5145355;27;20357;-19
2022/09/24 12:41:19;;;;;;;14.35;9.43;;;;;;;;;;5141837;27;20233;-18
2022/09/24 12:43:47;;;;;;;10.35;9.10;;;;;;;;;;5123166;28;21033;-18
2022/09/24 12:46:16;;;;;;;11.63;8.25;;;;;;;;;;5122778;28;20228;-18
2022/09/24 12:48:44;;;;;;;11.75;8.88;;;;;;;;;;5123165;28;20281;-18
2022/09/24 12:51:13;;;;;;;8.80;7.90;;;;;;;;;;5112908;28;20225;-18
2022/09/24 12:53:41;;;;;;;11.65;8.25;;;;;;;;;;5113654;28;21024;-18
2022/09/24 12:56:10;;;;;;;8.45;6.80;;;;;;;;;;5121607;28;20973;-18
2022/09/24 12:58:38;;;;;;;10.57;7.40;;;;;;;;;;5121630;28;20220;-18
2022/09/24 13:01:06;;;;;;;8.80;7.32;;;;;;;;;;5119802;28;20263;-18
2022/09/24 13:03:34;;;;;;;9.25;7.25;;;;;;;;;;5120074;28;20329;-18
2022/09/24 13:06:01;;;;;;;8.25;6.78;;;;;;;;;;5121363;27;20228;-19
2022/09/24 13:08:35;;;;;;;8.95;6.53;;;;;;;;;;5124723;28;20319;-18
2022/09/24 13:11:04;;;;;;;9.93;6.70;;;;;;;;;;5124635;28;20839;-18
2022/09/24 13:13:35;;;;;;;7.40;6.18;;;;;;;;;;5123893;28;20747;-18
2022/09/24 13:16:03;;;;;;;9.35;5.95;;;;;;;;;;5123543;28;20304;-18
2022/09/24 13:18:31;;;;;;;7.60;6.13;;;;;;;;;;5124398;28;20244;-18
2022/09/24 13:21:02;;;;;;;7.93;6.07;;;;;;;;;;5125530;28;21171;-18
2022/09/24 13:23:31;;;;;;;7.68;5.93;;;;;;;;;;5124047;28;20227;-18
2022/09/24 13:25:59;;;;;;;7.50;6.03;;;;;;;;;;5120579;28;20240;-18
2022/09/24 13:28:26;;;;;;;6.88;5.65;;;;;;;;;;5124684;28;21024;-18
2022/09/24 13:31:10;;;;;;;7.95;5.80;;;;;;;;;;5126478;28;20232;-18
2022/09/24 13:33:39;;;;;;;7.85;5.60;;;;;;;;;;5123544;28;20227;-18
2022/09/24 13:36:10;;;;;;;7.32;4.80;;;;;;;;;;5123806;28;20224;-18
2022/09/24 13:38:38;;;;;;;9.80;5.30;;;;;;;;;;5098865;28;20961;-18
2022/09/24 13:41:17;;;;;;;7.35;5.53;;;;;;;;;;5097065;28;20209;-18
2022/09/24 13:43:45;;;;;;;6.50;5.10;;;;;;;;;;5098629;28;20224;-18
2022/09/24 13:46:15;;;;;;;7.95;4.60;;;;;;;;;;5108631;28;20236;-18
2022/09/24 13:48:43;;;;;;;7.28;4.93;;;;;;;;;;5119138;28;20597;-18
2022/09/24 13:51:11;;;;;;;5.88;4.53;;;;;;;;;;5118533;28;20220;-18
2022/09/24 13:53:39;;;;;;;9.52;4.97;;;;;;;;;;5120188;28;20228;-18
2022/09/24 13:56:11;;;;;;;6.20;5.25;;;;;;;;;;5121937;28;21039;-18
2022/09/24 13:58:40;;;;;;;5.80;4.72;;;;;;;;;;5120128;28;20220;-18
2022/09/24 14:01:11;;;;;;;4.65;4.18;;;;;;;;;;5121429;28;21043;-18
2022/09/24 14:03:41;;;;;;;7.20;3.95;;;;;;;;;;5122360;28;20224;-18
2022/09/24 14:06:11;;;;;;;4.68;4.05;;;;;;;;;;5120515;28;20313;-18
2022/09/24 14:08:40;;;;;;;5.72;4.25;;;;;;;;;;5121036;28;20224;-18
2022/09/24 14:11:13;;;;;;;4.85;4.07;;;;;;;;;;5120737;28;20224;-18
2022/09/24 14:13:44;;;;;;;6.18;3.95;;;;;;;;;;5121728;28;20723;-18
2022/09/24 14:16:14;;;;;;;5.88;4.20;;;;;;;;;;5120237;28;20212;-18
2022/09/24 14:18:43;;;;;;;5.82;4.25;;;;;;;;;;5120695;27;20224;-18
2022/09/24 14:21:11;;;;;;;5.95;3.97;;;;;;;;;;5115525;28;21116;-18
2022/09/24 14:23:40;;;;;;;6.20;4.00;;;;;;;;;;5116004;28;20236;-18
2022/09/24 14:26:07;;;;;;;6.30;3.88;;;;;;;;;;5117835;28;20236;-19
2022/09/24 14:28:35;;;;;;;8.27;3.53;;;;;;;;;;5117256;28;20216;-19
2022/09/24 14:31:03;;;;;;;9.35;4.22;;;;;;;;;;5116376;28;20228;-18
2022/09/24 14:33:30;;;;;;;4.53;4.00;;;;;;;;;;5103014;28;20243;-19
2022/09/24 14:35:59;;;;;;;6.65;4.03;;;;;;;;;;5097235;28;20223;-19
2022/09/24 14:38:28;;;;;;;5.57;3.75;;;;;;;;;;5095950;28;20227;-18
2022/09/24 14:40:57;;;;;;;6.28;4.22;;;;;;;;;;5096243;28;20217;-19
2022/09/24 14:43:30;;;;;;;5.10;3.70;;;;;;;;;;5106937;27;20334;-19
2022/09/24 14:46:01;;;;;;;6.15;3.33;;;;;;;;;;5118847;28;20262;-19
2022/09/24 14:48:29;;;;;;;8.93;4.05;;;;;;;;;;5123609;28;20243;-19
2022/09/24 14:50:56;;;;;;;12.65;4.72;;;;;;;;;;5120279;28;20220;-18
2022/09/24 14:53:26;;;;;;;10.73;4.38;;;;;;;;;;5119858;28;20957;-19
2022/09/24 14:55:54;;;;;;;8.85;3.50;;;;;;;;;;5106828;28;20232;-18
2022/09/24 14:58:25;;;;;;;11.07;4.15;;;;;;;;;;5099534;28;20227;-19
2022/09/24 15:00:55;;;;;;;21.13;4.00;;;;;;;;;;5105540;28;20326;-19
2022/09/24 15:03:25;;;;;;;17.27;4.38;;;;;;;;;;5119467;28;20212;-19